Terminal Aerodrome Forecast
Issued by NWS Greer, SC

Home | Current Version | Previous Version | Text Only | Print | Product List | Glossary On
Versions: 1 2 3 4 5 6 7 8 9 10 11 12 13 14 15 16
464
FTUS42 KGSP 211730
TAFGSP
TAF
KGSP 211730Z 2118/2218 VRB03KT P6SM FEW060
     FM212100 22004KT P6SM SCT060 BKN250
     FM220100 VRB03KT P6SM SCT250
     FM221500 22006KT P6SM FEW060=

USA.gov is the U.S. government's official web portal to all federal, state and local government web resources and services.